Time;durP1;ratioP1;P1;durP2;ratioP2;P2;SDS_P1;SDS_P2;PMS_P1;PMS_P2;Temp;Humidity;BMP_temperature;BMP_pressure;BME280_temperature;BME280_humidity;BME280_pressure;Samples;Min_cycle;Max_cycle;Signal;HPM_P1;HPM_P2
2023/07/16 00:00:29;;;;;;;13.13;5.82;;;15.40;99.90;;;;;;5095299;27;20477;-39
2023/07/16 00:02:55;;;;;;;10.65;4.15;;;15.40;99.90;;;;;;5112039;27;20905;-38
2023/07/16 00:05:21;;;;;;;13.20;4.65;;;15.40;99.90;;;;;;5111525;27;20067;-39
2023/07/16 00:07:47;;;;;;;13.45;4.60;;;15.40;99.90;;;;;;5109451;27;20041;-39
2023/07/16 00:10:13;;;;;;;13.88;5.03;;;15.40;99.90;;;;;;5111152;27;20396;-40
2023/07/16 00:12:38;;;;;;;13.85;5.00;;;15.40;99.90;;;;;;5112523;27;20038;-39
2023/07/16 00:15:06;;;;;;;13.48;4.68;;;15.40;99.90;;;;;;5092859;27;20042;-39
2023/07/16 00:17:33;;;;;;;9.32;3.97;;;15.50;99.90;;;;;;5114089;27;20034;-39
2023/07/16 00:19:58;;;;;;;14.13;4.72;;;15.50;99.90;;;;;;5113463;27;20043;-39
2023/07/16 00:22:24;;;;;;;9.95;4.43;;;15.40;99.90;;;;;;5095646;27;20039;-40
2023/07/16 00:24:50;;;;;;;12.15;3.88;;;15.40;99.90;;;;;;5093341;27;20039;-39
2023/07/16 00:27:15;;;;;;;8.40;4.10;;;15.40;99.90;;;;;;5092221;27;20039;-39
2023/07/16 00:29:41;;;;;;;13.98;4.38;;;15.40;99.90;;;;;;5111488;27;20154;-39
2023/07/16 00:32:07;;;;;;;14.18;4.65;;;15.40;99.90;;;;;;5111326;27;20042;-39
2023/07/16 00:34:32;;;;;;;17.42;4.78;;;15.40;99.90;;;;;;5108434;27;20388;-39
2023/07/16 00:37:01;;;;;;;9.48;4.13;;;15.40;99.90;;;;;;5091676;27;20062;-44
2023/07/16 00:39:30;;;;;;;12.70;4.60;;;15.50;99.90;;;;;;5092821;27;20039;-39
2023/07/16 00:41:56;;;;;;;11.88;5.00;;;15.50;99.90;;;;;;5113976;27;20114;-40
2023/07/16 00:44:22;;;;;;;13.02;4.78;;;15.50;99.90;;;;;;5092444;27;20306;-39
2023/07/16 00:46:48;;;;;;;13.98;5.25;;;15.50;99.90;;;;;;5091222;27;20035;-39
2023/07/16 00:49:14;;;;;;;10.10;4.53;;;15.60;99.90;;;;;;5112106;27;20423;-39
2023/07/16 00:51:40;;;;;;;16.27;5.35;;;15.60;99.90;;;;;;5112041;27;20039;-39
2023/07/16 00:54:06;;;;;;;13.18;4.38;;;15.60;99.90;;;;;;5114979;27;20037;-39
2023/07/16 00:56:32;;;;;;;13.82;4.50;;;15.60;99.90;;;;;;5112026;27;20130;-39
2023/07/16 00:58:58;;;;;;;12.88;4.38;;;15.70;99.90;;;;;;5111957;27;20042;-39
2023/07/16 01:01:23;;;;;;;14.32;4.32;;;15.70;99.90;;;;;;5110926;27;20043;-39
2023/07/16 01:03:50;;;;;;;14.10;5.13;;;15.70;99.90;;;;;;5113577;27;20038;-39
2023/07/16 01:06:36;;;;;;;18.08;4.93;;;15.70;99.90;;;;;;5094397;27;20051;-39
2023/07/16 01:09:07;;;;;;;9.80;3.63;;;15.70;99.90;;;;;;5092546;28;20054;-39
2023/07/16 01:11:35;;;;;;;15.30;5.00;;;15.60;99.90;;;;;;5112390;27;20051;-39
2023/07/16 01:14:02;;;;;;;12.88;4.95;;;15.60;99.90;;;;;;5111791;27;20129;-39
2023/07/16 01:16:27;;;;;;;15.18;4.88;;;15.70;99.90;;;;;;5115062;27;20043;-39
2023/07/16 01:18:53;;;;;;;16.60;4.43;;;15.60;99.90;;;;;;5112539;27;20050;-39
2023/07/16 01:21:21;;;;;;;13.38;4.47;;;15.60;99.90;;;;;;5113926;27;20039;-39
2023/07/16 01:23:58;;;;;;;12.43;3.83;;;15.50;99.90;;;;;;5111610;27;20401;-39
2023/07/16 01:26:27;;;;;;;9.07;3.95;;;15.60;99.90;;;;;;5114929;27;20507;-39
2023/07/16 01:29:05;;;;;;;12.43;4.20;;;15.60;99.90;;;;;;5111935;27;20035;-39
2023/07/16 01:31:33;;;;;;;16.55;3.78;;;15.60;99.90;;;;;;5112778;27;20050;-39
2023/07/16 01:33:59;;;;;;;12.15;3.58;;;15.60;99.90;;;;;;5110876;27;20050;-39
2023/07/16 01:36:26;;;;;;;10.40;4.20;;;15.60;99.90;;;;;;5108149;27;20039;-39
2023/07/16 01:38:52;;;;;;;13.02;3.60;;;15.60;99.90;;;;;;5112959;27;20050;-39
2023/07/16 01:41:18;;;;;;;11.63;3.38;;;15.60;99.90;;;;;;5113664;27;20408;-39
2023/07/16 01:43:44;;;;;;;12.35;3.58;;;15.60;99.90;;;;;;5112544;27;20047;-39
2023/07/16 01:46:10;;;;;;;9.65;3.63;;;15.60;99.90;;;;;;5113974;27;20430;-39
2023/07/16 01:48:37;;;;;;;10.20;3.55;;;15.60;99.90;;;;;;5114984;27;20387;-39
2023/07/16 01:51:03;;;;;;;9.65;3.67;;;15.60;99.90;;;;;;5114269;27;20127;-39
2023/07/16 01:53:31;;;;;;;11.48;4.38;;;15.60;99.90;;;;;;5114525;27;20141;-39
2023/07/16 01:55:57;;;;;;;13.13;3.45;;;15.50;99.90;;;;;;5114146;27;20054;-39
2023/07/16 01:58:22;;;;;;;9.27;3.70;;;15.50;99.90;;;;;;5114655;27;20046;-39
2023/07/16 02:00:50;;;;;;;12.27;4.63;;;15.50;99.90;;;;;;5089533;27;20051;-39
2023/07/16 02:03:15;;;;;;;12.30;4.10;;;15.50;99.90;;;;;;5107961;27;20078;-39
2023/07/16 02:05:41;;;;;;;12.68;4.13;;;15.50;99.90;;;;;;5115863;27;20139;-39
2023/07/16 02:08:07;;;;;;;12.98;4.18;;;15.50;99.90;;;;;;5117853;27;20123;-39
2023/07/16 02:10:32;;;;;;;9.55;3.88;;;15.40;99.90;;;;;;5118191;27;21004;-39
2023/07/16 02:12:58;;;;;;;15.10;4.88;;;15.40;99.90;;;;;;5119306;27;20734;-38
2023/07/16 02:15:24;;;;;;;15.15;5.50;;;15.40;99.90;;;;;;5118180;27;20413;-39
2023/07/16 02:17:49;;;;;;;10.15;4.13;;;15.40;99.90;;;;;;5118083;27;20039;-38
2023/07/16 02:20:15;;;;;;;12.93;4.55;;;15.50;99.90;;;;;;5116871;27;20035;-38
2023/07/16 02:22:40;;;;;;;14.10;5.00;;;15.50;99.90;;;;;;5117305;27;20055;-38
2023/07/16 02:25:06;;;;;;;9.13;4.50;;;15.50;99.90;;;;;;5116260;27;20560;-39
2023/07/16 02:27:32;;;;;;;11.10;5.05;;;15.50;99.90;;;;;;5117213;27;20047;-39
2023/07/16 02:29:58;;;;;;;9.55;5.63;;;15.50;99.90;;;;;;5117145;27;20045;-38
2023/07/16 02:32:24;;;;;;;11.25;5.65;;;15.60;99.90;;;;;;5099469;27;20477;-38
2023/07/16 02:34:49;;;;;;;11.25;5.20;;;15.60;99.90;;;;;;5108834;27;20039;-39
2023/07/16 02:37:15;;;;;;;11.77;5.25;;;15.60;99.90;;;;;;5115803;27;20122;-39
2023/07/16 02:39:42;;;;;;;10.70;5.40;;;15.60;99.90;;;;;;5130812;27;20357;-39
2023/07/16 02:42:08;;;;;;;12.02;5.60;;;15.60;99.90;;;;;;5138626;27;20043;-39
2023/07/16 02:44:38;;;;;;;12.10;6.05;;;15.60;99.90;;;;;;5103031;27;20494;-39
2023/07/16 02:47:04;;;;;;;8.93;4.85;;;15.60;99.90;;;;;;5107602;27;20134;-39
2023/07/16 02:49:29;;;;;;;14.70;6.50;;;15.60;99.90;;;;;;5116366;27;20051;-39
2023/07/16 02:51:55;;;;;;;12.45;5.43;;;15.60;99.90;;;;;;5117325;27;20073;-39
2023/07/16 02:54:21;;;;;;;16.48;6.10;;;15.60;99.90;;;;;;5116878;27;20054;-39
2023/07/16 02:56:47;;;;;;;14.77;5.32;;;15.60;99.90;;;;;;5100177;27;20055;-39
2023/07/16 02:59:12;;;;;;;13.57;5.60;;;15.60;99.90;;;;;;5117534;27;20504;-39
2023/07/16 03:01:38;;;;;;;10.88;5.75;;;15.60;99.90;;;;;;5118439;27;20907;-39
2023/07/16 03:04:04;;;;;;;12.52;5.10;;;15.60;99.90;;;;;;5117173;27;20647;-39
2023/07/16 03:06:29;;;;;;;14.50;5.97;;;15.60;99.90;;;;;;5098937;27;20176;-39
2023/07/16 03:08:55;;;;;;;12.20;5.43;;;15.50;99.90;;;;;;5116919;27;20144;-39
2023/07/16 03:11:20;;;;;;;15.85;6.53;;;15.50;99.90;;;;;;5117083;27;20057;-39
2023/07/16 03:13:46;;;;;;;15.07;6.25;;;15.50;99.90;;;;;;5116925;27;20043;-39
2023/07/16 03:16:12;;;;;;;12.38;5.70;;;15.50;99.90;;;;;;5116356;27;20092;-39
2023/07/16 03:18:37;;;;;;;16.40;5.95;;;15.50;99.90;;;;;;5116555;27;20039;-39
2023/07/16 03:21:03;;;;;;;14.40;6.22;;;15.40;99.90;;;;;;5097075;27;20051;-39
2023/07/16 03:23:29;;;;;;;13.50;5.78;;;15.40;99.90;;;;;;5117272;27;20130;-39
2023/07/16 03:25:54;;;;;;;15.43;6.30;;;15.40;99.90;;;;;;5116530;27;20500;-39
2023/07/16 03:28:20;;;;;;;15.05;5.80;;;15.40;99.90;;;;;;5116954;27;20088;-39
2023/07/16 03:30:50;;;;;;;13.35;6.53;;;15.40;99.90;;;;;;5116844;27;20051;-39
2023/07/16 03:33:16;;;;;;;16.33;6.63;;;15.40;99.90;;;;;;5116882;27;20043;-39
2023/07/16 03:35:46;;;;;;;16.75;7.45;;;15.40;99.90;;;;;;5106869;27;20062;-39
2023/07/16 03:38:12;;;;;;;10.93;6.20;;;15.30;99.90;;;;;;5117412;27;20034;-39
2023/07/16 03:40:38;;;;;;;20.17;7.30;;;15.40;99.90;;;;;;5136646;27;20086;-39
2023/07/16 03:43:04;;;;;;;16.67;7.65;;;15.40;99.90;;;;;;5128352;27;20677;-39
2023/07/16 03:45:30;;;;;;;15.07;7.57;;;15.40;99.90;;;;;;5106808;27;20047;-38
2023/07/16 03:47:55;;;;;;;12.63;6.88;;;15.40;99.90;;;;;;5116367;27;20651;-39
2023/07/16 03:50:21;;;;;;;13.77;7.25;;;15.50;99.90;;;;;;5116303;27;20416;-39
2023/07/16 03:52:47;;;;;;;17.23;7.35;;;15.50;99.90;;;;;;5120947;27;20503;-39
2023/07/16 03:55:13;;;;;;;14.02;7.65;;;15.60;99.90;;;;;;5137422;27;20034;-38
2023/07/16 03:57:38;;;;;;;19.67;7.20;;;15.70;99.90;;;;;;5138345;27;20369;-39
2023/07/16 04:00:11;;;;;;;15.13;6.82;;;15.70;99.90;;;;;;5137727;27;20463;-39
2023/07/16 04:02:36;;;;;;;14.82;7.00;;;15.70;99.90;;;;;;5098979;27;20138;-39
2023/07/16 04:05:03;;;;;;;13.85;7.05;;;15.80;99.90;;;;;;5114951;27;20704;-39
2023/07/16 04:07:28;;;;;;;14.15;7.25;;;15.80;99.90;;;;;;5091170;28;20040;-39
2023/07/16 04:09:54;;;;;;;14.75;7.55;;;15.80;99.90;;;;;;5108082;27;20039;-39
2023/07/16 04:12:20;;;;;;;13.57;6.32;;;16.10;99.90;;;;;;5097695;27;20146;-39
2023/07/16 04:14:47;;;;;;;12.75;7.10;;;16.30;99.90;;;;;;5115616;27;20499;-39
2023/07/16 04:17:13;;;;;;;14.15;7.70;;;16.50;99.90;;;;;;5115232;27;20402;-39
2023/07/16 04:19:39;;;;;;;12.57;7.28;;;16.80;99.90;;;;;;5116018;27;20039;-39
2023/07/16 04:22:05;;;;;;;17.60;7.50;;;16.90;99.90;;;;;;5116140;27;20584;-39
2023/07/16 04:24:31;;;;;;;14.93;7.88;;;17.10;99.90;;;;;;5115608;27;20057;-39
2023/07/16 04:26:58;;;;;;;15.50;7.93;;;17.30;99.90;;;;;;5115607;27;20047;-40
2023/07/16 04:29:23;;;;;;;13.70;8.02;;;17.50;99.90;;;;;;5097429;27;20039;-39
2023/07/16 04:31:49;;;;;;;14.75;8.38;;;17.70;99.90;;;;;;5121813;27;20091;-39
2023/07/16 04:34:15;;;;;;;15.80;7.93;;;17.60;99.90;;;;;;5131016;27;20038;-40
2023/07/16 04:36:42;;;;;;;12.98;7.07;;;17.90;99.90;;;;;;5109707;27;20042;-39
2023/07/16 04:39:08;;;;;;;20.30;8.73;;;18.00;99.90;;;;;;5112883;27;20144;-39
2023/07/16 04:41:34;;;;;;;16.20;8.38;;;18.00;99.90;;;;;;5097049;27;20038;-39
2023/07/16 04:43:59;;;;;;;12.80;7.32;;;18.30;99.90;;;;;;5102766;27;20067;-39
2023/07/16 04:46:25;;;;;;;20.15;8.25;;;18.90;99.90;;;;;;5128378;27;20096;-40
2023/07/16 04:48:51;;;;;;;16.35;8.77;;;18.50;99.90;;;;;;5115050;27;20385;-39
2023/07/16 04:51:16;;;;;;;11.25;7.68;;;18.20;99.90;;;;;;5115639;27;20042;-39
2023/07/16 04:53:42;;;;;;;13.63;8.05;;;17.90;99.90;;;;;;5115203;27;20084;-39
2023/07/16 04:56:15;;;;;;;16.13;7.90;;;17.80;99.90;;;;;;5116159;27;20051;-39
2023/07/16 04:58:41;;;;;;;18.80;7.70;;;18.40;99.90;;;;;;5115594;27;20431;-40
2023/07/16 05:01:11;;;;;;;14.07;8.00;;;18.50;99.90;;;;;;5097243;27;20047;-39
2023/07/16 05:03:36;;;;;;;15.10;8.00;;;18.20;99.90;;;;;;5115625;27;20046;-39
2023/07/16 05:06:04;;;;;;;12.77;7.43;;;17.90;99.90;;;;;;5116212;27;20039;-40
2023/07/16 05:08:30;;;;;;;13.85;6.68;;;17.80;99.90;;;;;;5115661;27;20050;-39
2023/07/16 05:10:56;;;;;;;16.08;7.18;;;18.10;99.90;;;;;;5115315;27;20051;-40
2023/07/16 05:13:21;;;;;;;15.20;7.03;;;18.10;99.90;;;;;;5114256;27;20043;-39
2023/07/16 05:15:47;;;;;;;16.98;7.63;;;18.00;99.90;;;;;;5114635;27;20058;-39
2023/07/16 05:18:13;;;;;;;18.40;7.63;;;17.70;99.90;;;;;;5114842;27;20039;-39
2023/07/16 05:20:38;;;;;;;10.55;6.45;;;17.60;99.90;;;;;;5114642;27;20385;-39
2023/07/16 05:23:04;;;;;;;14.07;6.38;;;17.50;99.90;;;;;;5096921;27;20568;-39
2023/07/16 05:25:30;;;;;;;11.82;5.85;;;17.50;99.90;;;;;;5114884;28;20162;-40
2023/07/16 05:27:56;;;;;;;13.68;6.30;;;18.20;99.90;;;;;;5114786;27;20051;-40
2023/07/16 05:30:22;;;;;;;10.68;5.75;;;19.60;99.90;;;;;;5122798;27;20035;-40
2023/07/16 05:32:48;;;;;;;10.75;5.70;;;20.80;99.90;;;;;;5136094;27;20468;-40
2023/07/16 05:35:14;;;;;;;10.77;5.72;;;20.80;99.90;;;;;;5115865;27;20385;-40
2023/07/16 05:37:39;;;;;;;10.55;5.80;;;20.40;99.90;;;;;;5112205;27;20049;-40
2023/07/16 05:40:08;;;;;;;11.40;5.75;;;19.80;99.90;;;;;;5134624;27;20043;-39
2023/07/16 05:42:34;;;;;;;16.48;7.00;;;19.30;99.90;;;;;;5135302;27;20047;-40
2023/07/16 05:45:00;;;;;;;12.55;6.13;;;18.90;99.90;;;;;;5101683;27;20441;-39
2023/07/16 05:47:25;;;;;;;15.07;6.95;;;18.40;99.90;;;;;;5115338;27;20040;-40
2023/07/16 05:49:51;;;;;;;11.40;7.10;;;18.30;99.90;;;;;;5114531;27;20035;-39
2023/07/16 05:52:17;;;;;;;12.13;6.60;;;18.10;99.90;;;;;;5095671;27;20389;-39
2023/07/16 05:54:44;;;;;;;15.55;6.40;;;17.90;99.90;;;;;;5113885;27;20051;-40
2023/07/16 05:57:10;;;;;;;14.75;6.43;;;17.90;99.90;;;;;;5114980;27;20096;-40
2023/07/16 05:59:37;;;;;;;17.67;7.60;;;17.90;99.90;;;;;;5114036;27;20421;-39
2023/07/16 06:02:03;;;;;;;14.48;6.50;;;17.90;99.90;;;;;;5115471;27;20051;-39
2023/07/16 06:04:29;;;;;;;12.32;6.38;;;17.90;99.90;;;;;;5114860;27;20087;-39
2023/07/16 06:06:56;;;;;;;16.15;6.95;;;17.90;99.90;;;;;;5115011;27;20122;-39
2023/07/16 06:09:21;;;;;;;13.60;7.15;;;18.00;99.90;;;;;;5114229;27;20130;-39
2023/07/16 06:11:48;;;;;;;14.80;7.72;;;17.90;99.90;;;;;;5115175;27;20515;-40
2023/07/16 06:14:14;;;;;;;16.60;7.93;;;17.90;99.90;;;;;;5113984;28;20484;-39
2023/07/16 06:16:40;;;;;;;12.23;6.30;;;18.30;99.90;;;;;;5114640;27;20047;-39
2023/07/16 06:19:05;;;;;;;13.25;7.38;;;18.60;99.90;;;;;;5109289;27;20126;-39
2023/07/16 06:21:31;;;;;;;13.43;7.50;;;18.70;99.90;;;;;;5108375;27;20043;-39
2023/07/16 06:23:56;;;;;;;16.88;7.55;;;19.00;99.90;;;;;;5103829;27;20118;-41
2023/07/16 06:26:22;;;;;;;13.88;7.82;;;19.00;99.90;;;;;;5096594;27;20370;-39
2023/07/16 06:28:49;;;;;;;16.83;7.90;;;18.80;99.90;;;;;;5073544;27;20489;-41
2023/07/16 06:31:18;;;;;;;16.08;8.15;;;18.50;99.90;;;;;;5111781;27;20050;-39
2023/07/16 06:33:46;;;;;;;15.88;7.25;;;18.30;99.90;;;;;;5102220;27;20402;-40
2023/07/16 06:36:12;;;;;;;16.45;7.38;;;18.30;99.90;;;;;;5103666;27;20099;-40
2023/07/16 06:38:38;;;;;;;18.00;7.30;;;18.20;99.90;;;;;;5112749;27;20039;-40
2023/07/16 06:41:04;;;;;;;12.52;7.75;;;18.10;99.90;;;;;;5116386;27;20049;-40
2023/07/16 06:43:29;;;;;;;16.27;7.60;;;18.30;99.90;;;;;;5111772;27;20062;-39
2023/07/16 06:45:55;;;;;;;13.80;7.22;;;18.30;99.90;;;;;;5095205;27;20863;-41
2023/07/16 06:48:21;;;;;;;12.07;6.85;;;18.70;99.90;;;;;;5115863;27;20035;-39
2023/07/16 06:50:46;;;;;;;14.63;7.93;;;18.70;99.90;;;;;;5114915;27;20047;-40
2023/07/16 06:53:12;;;;;;;12.52;7.85;;;18.70;99.90;;;;;;5115388;27;20054;-40
2023/07/16 06:55:38;;;;;;;12.05;7.28;;;18.70;99.90;;;;;;5097345;27;20035;-40
2023/07/16 06:58:03;;;;;;;13.35;8.32;;;18.90;99.90;;;;;;5104839;27;20173;-39
2023/07/16 07:00:29;;;;;;;13.52;7.85;;;18.80;99.90;;;;;;5107917;27;20039;-40
2023/07/16 07:02:55;;;;;;;15.80;8.20;;;18.50;99.90;;;;;;5107841;27;20486;-40
2023/07/16 07:05:22;;;;;;;15.38;8.50;;;18.30;99.90;;;;;;5096974;27;20046;-39
2023/07/16 07:07:47;;;;;;;13.65;7.28;;;18.00;99.90;;;;;;5099892;27;20079;-39
2023/07/16 07:10:13;;;;;;;16.48;7.97;;;17.80;99.90;;;;;;5122088;27;20118;-39
2023/07/16 07:12:39;;;;;;;14.00;8.30;;;17.80;99.90;;;;;;5116026;27;20537;-41
2023/07/16 07:15:08;;;;;;;14.48;7.43;;;18.00;99.90;;;;;;5116732;27;20043;-39
2023/07/16 07:17:34;;;;;;;13.00;7.88;;;17.90;99.90;;;;;;5117189;27;20047;-40
2023/07/16 07:20:01;;;;;;;12.80;7.05;;;17.80;99.90;;;;;;5115232;27;20500;-39
2023/07/16 07:22:26;;;;;;;12.43;7.43;;;17.90;99.90;;;;;;5116897;27;20116;-40
2023/07/16 07:24:52;;;;;;;13.98;7.18;;;17.90;99.90;;;;;;5117061;27;20059;-39
2023/07/16 07:27:18;;;;;;;13.43;7.25;;;17.90;99.90;;;;;;5118377;27;20031;-39
2023/07/16 07:29:43;;;;;;;14.00;6.70;;;17.90;99.90;;;;;;5115722;27;20027;-40
2023/07/16 07:32:09;;;;;;;11.88;7.30;;;17.90;99.90;;;;;;5114167;27;20385;-39
2023/07/16 07:34:35;;;;;;;12.60;6.70;;;17.90;99.90;;;;;;5094237;28;20063;-39
2023/07/16 07:37:01;;;;;;;11.82;7.20;;;18.00;99.90;;;;;;5116187;27;20524;-39
2023/07/16 07:39:26;;;;;;;12.43;7.13;;;18.10;99.90;;;;;;5116172;27;20070;-40
2023/07/16 07:41:52;;;;;;;12.38;7.40;;;18.20;99.90;;;;;;5116806;27;20846;-39
2023/07/16 07:44:17;;;;;;;12.38;7.10;;;18.30;99.90;;;;;;5114625;27;20130;-39
2023/07/16 07:46:43;;;;;;;13.93;6.90;;;18.40;99.90;;;;;;5097521;27;20150;-40
2023/07/16 07:49:09;;;;;;;11.20;6.80;;;18.40;99.90;;;;;;5116266;27;20380;-39
2023/07/16 07:51:34;;;;;;;13.18;7.82;;;18.40;99.90;;;;;;5116424;27;20154;-39
2023/07/16 07:54:00;;;;;;;15.20;8.80;;;18.10;99.90;;;;;;5115508;27;20664;-40
2023/07/16 07:56:26;;;;;;;13.15;7.55;;;17.90;99.90;;;;;;5116219;27;20202;-40
2023/07/16 07:58:51;;;;;;;14.95;8.30;;;17.70;99.90;;;;;;5097583;27;20043;-39
2023/07/16 08:01:17;;;;;;;12.70;8.30;;;17.70;99.90;;;;;;5105469;27;20055;-39
2023/07/16 08:03:42;;;;;;;17.15;8.75;;;17.50;99.90;;;;;;5097695;27;20085;-39
2023/07/16 08:06:08;;;;;;;14.95;8.77;;;17.50;99.90;;;;;;5116699;27;20153;-39
2023/07/16 08:08:34;;;;;;;15.23;8.43;;;17.40;99.90;;;;;;5115663;27;20046;-39
2023/07/16 08:10:59;;;;;;;15.30;8.52;;;17.40;99.90;;;;;;5080521;27;20039;-40
2023/07/16 08:13:25;;;;;;;13.30;9.02;;;17.40;99.90;;;;;;5115401;27;20067;-40
2023/07/16 08:15:51;;;;;;;14.88;8.65;;;17.40;99.90;;;;;;5115604;27;20127;-39
2023/07/16 08:18:16;;;;;;;12.55;8.52;;;17.80;99.90;;;;;;5114259;27;20047;-39
2023/07/16 08:20:42;;;;;;;14.85;8.10;;;18.40;99.90;;;;;;5113189;27;20493;-39
2023/07/16 08:23:08;;;;;;;13.98;8.40;;;18.90;99.90;;;;;;5115875;27;20090;-39
2023/07/16 08:25:33;;;;;;;12.38;7.60;;;19.10;99.90;;;;;;5117072;27;20071;-40
2023/07/16 08:28:02;;;;;;;15.00;8.82;;;19.30;99.90;;;;;;5117047;27;20043;-40
2023/07/16 08:30:28;;;;;;;12.75;8.02;;;19.60;99.90;;;;;;5116054;27;20043;-40
2023/07/16 08:32:53;;;;;;;18.48;8.55;;;19.60;99.90;;;;;;5116461;27;20500;-40
2023/07/16 08:35:19;;;;;;;19.02;8.25;;;19.80;99.90;;;;;;5105920;27;20509;-40
2023/07/16 08:37:46;;;;;;;17.20;7.25;;;19.90;99.90;;;;;;5113571;27;20044;-39
2023/07/16 08:40:12;;;;;;;12.65;7.32;;;19.80;99.90;;;;;;5135737;27;20034;-40
2023/07/16 08:42:39;;;;;;;13.32;7.85;;;19.80;99.90;;;;;;5135317;27;20408;-40
2023/07/16 08:45:10;;;;;;;16.08;7.72;;;19.90;99.90;;;;;;5106754;27;20043;-41
2023/07/16 08:47:36;;;;;;;12.25;7.85;;;20.00;99.90;;;;;;5095141;27;20050;-39
2023/07/16 08:50:02;;;;;;;15.63;8.07;;;19.90;99.90;;;;;;5113407;27;20096;-41
2023/07/16 08:52:28;;;;;;;10.98;7.50;;;19.80;99.90;;;;;;5116205;27;20039;-40
2023/07/16 08:54:54;;;;;;;15.38;7.30;;;19.60;99.90;;;;;;5116088;27;20058;-40
2023/07/16 08:57:21;;;;;;;12.30;8.15;;;19.40;99.90;;;;;;5092386;27;20054;-40
2023/07/16 08:59:51;;;;;;;15.25;8.13;;;19.40;99.90;;;;;;5111853;27;20054;-40
2023/07/16 09:02:21;;;;;;;14.82;6.85;;;19.40;99.90;;;;;;5112130;27;20532;-40
2023/07/16 09:04:54;;;;;;;13.40;7.03;;;19.50;99.90;;;;;;5115119;27;20138;-40
2023/07/16 09:07:20;;;;;;;14.82;7.20;;;19.60;99.90;;;;;;5119169;27;20034;-40
2023/07/16 09:09:58;;;;;;;12.52;6.63;;;19.80;99.90;;;;;;5114456;27;20492;-40
2023/07/16 09:12:24;;;;;;;12.55;7.00;;;19.80;99.90;;;;;;5116427;27;20631;-40
2023/07/16 09:14:50;;;;;;;14.65;6.50;;;19.80;99.90;;;;;;5116436;27;20043;-40
2023/07/16 09:17:26;;;;;;;14.00;7.55;;;20.10;99.90;;;;;;5118319;27;20418;-40
2023/07/16 09:19:52;;;;;;;13.07;7.70;;;20.10;99.90;;;;;;5110487;27;20047;-40
2023/07/16 09:22:19;;;;;;;12.88;6.95;;;20.00;99.90;;;;;;5092278;28;20535;-41
2023/07/16 09:24:46;;;;;;;15.23;7.15;;;19.90;99.90;;;;;;5112233;27;20375;-40
2023/07/16 09:27:12;;;;;;;10.60;6.25;;;20.20;99.90;;;;;;5115442;27;20400;-40
2023/07/16 09:29:39;;;;;;;10.52;5.93;;;20.60;99.90;;;;;;5115089;28;20080;-39
2023/07/16 09:32:05;;;;;;;15.13;7.78;;;21.10;99.90;;;;;;5115639;27;20043;-40
2023/07/16 09:34:31;;;;;;;10.65;6.13;;;21.10;99.90;;;;;;5112273;27;20469;-39
2023/07/16 09:36:58;;;;;;;11.32;6.93;;;21.10;99.90;;;;;;5111305;27;20071;-42
2023/07/16 09:39:25;;;;;;;12.13;7.03;;;21.20;99.90;;;;;;5111371;27;20035;-41
2023/07/16 09:41:51;;;;;;;13.05;6.63;;;21.20;99.90;;;;;;5115045;28;20035;-40
2023/07/16 09:44:18;;;;;;;12.45;6.60;;;21.30;99.90;;;;;;5101493;27;20036;-40
2023/07/16 09:46:45;;;;;;;12.07;7.07;;;21.30;99.90;;;;;;5135598;27;20043;-40
2023/07/16 09:49:11;;;;;;;11.25;6.18;;;21.10;99.90;;;;;;5134871;27;20046;-40
2023/07/16 09:51:38;;;;;;;11.77;7.28;;;20.80;99.90;;;;;;5117334;27;20078;-42
2023/07/16 09:54:04;;;;;;;11.68;6.57;;;20.80;99.90;;;;;;5081697;27;20066;-41
2023/07/16 09:56:41;;;;;;;11.43;6.93;;;21.10;99.90;;;;;;5135649;27;20073;-41
2023/07/16 09:59:22;;;;;;;11.93;7.22;;;21.30;99.90;;;;;;5101542;27;20055;-40
2023/07/16 10:01:48;;;;;;;11.43;6.72;;;21.20;99.90;;;;;;5139283;27;20408;-40
2023/07/16 10:04:19;;;;;;;11.90;7.38;;;20.70;99.90;;;;;;5138579;27;20046;-41
2023/07/16 10:06:53;;;;;;;15.20;7.60;;;20.30;99.90;;;;;;5107224;27;20039;-40
2023/07/16 10:09:54;;;;;;;9.57;7.15;;;20.00;99.90;;;;;;5086027;27;20146;-40
2023/07/16 10:12:20;;;;;;;13.43;7.75;;;19.90;99.90;;;;;;5015063;28;20256;-40
2023/07/16 10:14:48;;;;;;;11.88;7.32;;;19.80;99.90;;;;;;5032981;28;20048;-40
2023/07/16 10:17:15;;;;;;;13.30;8.23;;;20.10;99.90;;;;;;5033456;28;20049;-40
2023/07/16 10:20:08;;;;;;;12.57;7.03;;;20.50;99.90;;;;;;5006219;28;20137;-40
2023/07/16 10:22:35;;;;;;;16.48;8.35;;;20.40;99.90;;;;;;5010189;28;20383;-39
2023/07/16 10:25:03;;;;;;;9.45;6.72;;;20.20;99.90;;;;;;5026785;28;20490;-40
2023/07/16 10:27:34;;;;;;;14.43;7.97;;;20.10;99.90;;;;;;5013331;28;20428;-40
2023/07/16 10:30:02;;;;;;;12.85;7.35;;;20.30;99.90;;;;;;5032787;28;20037;-41
2023/07/16 10:32:29;;;;;;;12.80;8.05;;;20.70;99.90;;;;;;5033384;28;20407;-40
2023/07/16 10:34:56;;;;;;;11.20;7.85;;;20.90;99.90;;;;;;5020932;28;20056;-42
2023/07/16 10:37:22;;;;;;;11.43;6.60;;;20.90;99.90;;;;;;5013804;28;20154;-40
2023/07/16 10:39:50;;;;;;;16.70;7.25;;;21.20;99.90;;;;;;5013031;28;20128;-40
2023/07/16 10:42:16;;;;;;;12.38;6.50;;;21.50;99.90;;;;;;4992918;28;20112;-40
2023/07/16 10:44:42;;;;;;;13.18;5.82;;;21.60;99.90;;;;;;4998234;28;20664;-40
2023/07/16 10:47:10;;;;;;;10.65;5.68;;;21.50;99.90;;;;;;5011115;28;20082;-40
2023/07/16 10:49:35;;;;;;;12.05;5.75;;;21.70;99.90;;;;;;5095811;27;20054;-41
2023/07/16 10:52:02;;;;;;;12.15;6.47;;;21.80;99.90;;;;;;5117268;27;20047;-40
2023/07/16 10:54:28;;;;;;;11.02;6.40;;;21.50;99.90;;;;;;5111954;27;20046;-40
2023/07/16 10:56:53;;;;;;;9.80;6.35;;;21.10;99.90;;;;;;5121049;27;20436;-40
2023/07/16 10:59:19;;;;;;;11.40;6.18;;;20.80;99.90;;;;;;5136998;27;20487;-41
2023/07/16 11:01:46;;;;;;;11.95;6.63;;;20.70;99.90;;;;;;5109148;27;20040;-40
2023/07/16 11:04:11;;;;;;;13.80;6.82;;;20.40;99.90;;;;;;5084516;27;20039;-39
2023/07/16 11:06:37;;;;;;;12.77;6.32;;;20.70;99.90;;;;;;5120957;27;20583;-41
2023/07/16 11:09:10;;;;;;;8.88;6.53;;;20.90;99.90;;;;;;5135229;27;20411;-40
2023/07/16 11:11:35;;;;;;;11.45;6.65;;;20.90;99.90;;;;;;5137177;27;20062;-40
2023/07/16 11:14:06;;;;;;;10.38;5.82;;;21.00;99.90;;;;;;5100934;27;20161;-40
2023/07/16 11:16:35;;;;;;;10.35;6.43;;;21.00;99.90;;;;;;5118591;27;20473;-40
2023/07/16 11:19:04;;;;;;;12.45;5.97;;;20.60;99.90;;;;;;5085317;27;20061;-40
2023/07/16 11:21:29;;;;;;;11.90;6.95;;;20.50;99.90;;;;;;5117236;27;20669;-41
2023/07/16 11:23:55;;;;;;;11.02;7.50;;;20.20;99.90;;;;;;5116836;27;20047;-41
2023/07/16 11:26:21;;;;;;;14.13;7.07;;;20.10;99.90;;;;;;5117191;27;20408;-41
2023/07/16 11:28:50;;;;;;;15.52;8.13;;;20.20;99.90;;;;;;5116026;27;20206;-40
2023/07/16 11:31:18;;;;;;;11.48;7.28;;;20.20;99.90;;;;;;5105696;27;20054;-40
2023/07/16 11:33:47;;;;;;;12.55;7.35;;;20.10;99.90;;;;;;5097643;27;20035;-40
2023/07/16 11:36:13;;;;;;;9.63;7.60;;;20.00;99.90;;;;;;5096494;27;20414;-42
2023/07/16 11:38:39;;;;;;;12.00;7.30;;;19.90;99.90;;;;;;5113241;27;20038;-40
2023/07/16 11:41:05;;;;;;;15.75;9.32;;;20.00;99.90;;;;;;5091612;27;20123;-40
2023/07/16 11:43:37;;;;;;;15.10;8.35;;;20.10;99.90;;;;;;5097317;27;20414;-40
2023/07/16 11:46:18;;;;;;;11.73;7.70;;;20.10;99.90;;;;;;5098951;27;20039;-41
2023/07/16 11:48:43;;;;;;;12.10;7.93;;;20.30;99.90;;;;;;5099276;27;20409;-42
2023/07/16 11:51:09;;;;;;;15.90;7.80;;;20.30;99.90;;;;;;5114287;27;20692;-40
2023/07/16 11:53:35;;;;;;;13.40;7.60;;;20.40;99.90;;;;;;5116194;27;20050;-40
2023/07/16 11:56:00;;;;;;;17.77;8.25;;;20.40;99.90;;;;;;5115392;27;20051;-41
2023/07/16 11:58:26;;;;;;;11.85;6.78;;;20.50;99.90;;;;;;5114984;27;20042;-41
2023/07/16 12:00:52;;;;;;;13.77;7.35;;;20.60;99.90;;;;;;5113915;27;20088;-40
2023/07/16 12:03:17;;;;;;;12.05;7.20;;;20.70;99.90;;;;;;5113862;27;20042;-40
2023/07/16 12:05:43;;;;;;;11.23;6.10;;;20.80;99.90;;;;;;5115798;27;20655;-40
2023/07/16 12:08:13;;;;;;;13.48;7.03;;;20.90;99.90;;;;;;5097598;27;20039;-40
2023/07/16 12:10:40;;;;;;;11.25;5.93;;;21.10;99.90;;;;;;5096713;27;20035;-40
2023/07/16 12:13:06;;;;;;;11.52;5.70;;;21.30;99.90;;;;;;5115258;27;20451;-40
2023/07/16 12:15:32;;;;;;;14.18;6.05;;;21.40;99.90;;;;;;5115538;27;20494;-41
2023/07/16 12:17:58;;;;;;;14.60;6.60;;;21.40;99.90;;;;;;5115621;27;20455;-41
2023/07/16 12:20:24;;;;;;;9.27;5.68;;;21.80;99.90;;;;;;5115155;27;20138;-40
2023/07/16 12:22:49;;;;;;;11.23;6.20;;;21.80;99.90;;;;;;5114670;27;20043;-40
2023/07/16 12:25:18;;;;;;;12.65;6.57;;;21.60;99.90;;;;;;5095099;27;20047;-41
2023/07/16 12:27:44;;;;;;;11.38;6.00;;;21.50;99.90;;;;;;5113661;27;20043;-40
2023/07/16 12:30:10;;;;;;;13.70;6.22;;;21.20;99.90;;;;;;5114158;27;20031;-42
2023/07/16 12:32:36;;;;;;;12.40;6.03;;;20.90;99.90;;;;;;5114764;27;20421;-40
2023/07/16 12:35:04;;;;;;;11.68;6.15;;;20.90;99.90;;;;;;5109860;27;20088;-40